Time;durP1;ratioP1;P1;durP2;ratioP2;P2;SDS_P1;SDS_P2;PMS_P1;PMS_P2;Temp;Humidity;BMP_temperature;BMP_pressure;BME280_temperature;BME280_humidity;BME280_pressure;Samples;Min_cycle;Max_cycle;Signal;HPM_P1;HPM_P2
2021/04/15 00:02:04;;;;;;;14.30;9.20;;;2.00;86.40;;;;;;5089112;28;20605;-79
2021/04/15 00:04:31;;;;;;;11.63;8.55;;;1.80;85.80;;;;;;5089336;28;20207;-80
2021/04/15 00:06:57;;;;;;;12.60;9.18;;;1.80;86.10;;;;;;5088919;28;20253;-80
2021/04/15 00:09:25;;;;;;;10.32;9.10;;;1.80;87.00;;;;;;5090410;28;20203;-80
2021/04/15 00:11:52;;;;;;;14.32;10.25;;;2.00;87.00;;;;;;5085728;28;20737;-80
2021/04/15 00:14:22;;;;;;;12.73;10.90;;;2.10;85.70;;;;;;5091220;28;20277;-80
2021/04/15 00:16:50;;;;;;;11.30;9.48;;;2.20;85.20;;;;;;5088337;28;20267;-80
2021/04/15 00:19:18;;;;;;;12.43;9.35;;;2.00;83.80;;;;;;5093625;28;20206;-80
2021/04/15 00:21:45;;;;;;;16.60;10.27;;;1.70;84.80;;;;;;5088921;28;20205;-80
2021/04/15 00:24:11;;;;;;;12.00;8.40;;;1.60;86.50;;;;;;5094427;28;20217;-80
2021/04/15 00:26:38;;;;;;;13.43;9.73;;;1.40;87.60;;;;;;5079786;28;20703;-80
2021/04/15 00:29:04;;;;;;;12.13;10.00;;;1.30;89.10;;;;;;5089092;28;20198;-79
2021/04/15 00:31:32;;;;;;;14.65;9.98;;;1.20;89.90;;;;;;5090576;28;20567;-80
2021/04/15 00:33:58;;;;;;;12.50;10.30;;;1.20;90.20;;;;;;5086072;28;20241;-80
2021/04/15 00:36:26;;;;;;;14.85;9.95;;;1.10;90.60;;;;;;5090680;28;20536;-80
2021/04/15 00:38:53;;;;;;;14.00;10.43;;;1.20;90.60;;;;;;5079887;28;20225;-80
2021/04/15 00:41:21;;;;;;;11.98;9.60;;;1.30;90.50;;;;;;5095465;28;20210;-80
2021/04/15 00:43:48;;;;;;;17.77;9.30;;;1.40;90.00;;;;;;5087329;28;20321;-80
2021/04/15 00:46:45;;;;;;;12.25;9.65;;;1.30;89.60;;;;;;5093263;28;20221;-80
2021/04/15 00:49:16;;;;;;;13.98;11.07;;;1.50;89.30;;;;;;5076934;28;20212;-80
2021/04/15 00:51:45;;;;;;;11.57;8.98;;;1.30;88.50;;;;;;5090135;28;20313;-80
2021/04/15 00:54:18;;;;;;;14.18;10.50;;;1.50;88.70;;;;;;5089013;28;20220;-80
2021/04/15 00:56:45;;;;;;;12.85;9.15;;;1.40;87.60;;;;;;5086569;28;20199;-80
2021/04/15 00:59:12;;;;;;;15.32;10.80;;;1.50;88.50;;;;;;5088372;28;20187;-80
2021/04/15 01:01:38;;;;;;;13.15;9.95;;;1.50;88.20;;;;;;5086561;28;20606;-80
2021/04/15 01:04:06;;;;;;;12.45;8.57;;;1.40;88.40;;;;;;5093950;28;20236;-80
2021/04/15 01:06:36;;;;;;;17.10;10.15;;;1.40;87.80;;;;;;5085675;28;20198;-80
2021/04/15 01:09:04;;;;;;;11.80;10.27;;;1.30;88.70;;;;;;5088981;28;20233;-80
2021/04/15 01:11:45;;;;;;;10.63;9.35;;;1.40;88.40;;;;;;5080013;28;20710;-80
2021/04/15 01:14:23;;;;;;;13.20;10.25;;;1.60;87.30;;;;;;5086824;28;20608;-80
2021/04/15 01:16:59;;;;;;;12.13;10.85;;;1.60;86.70;;;;;;5086823;28;20707;-80
2021/04/15 01:19:53;;;;;;;13.35;10.15;;;1.70;85.70;;;;;;5088141;28;20220;-80
2021/04/15 01:22:46;;;;;;;14.02;9.98;;;1.60;86.00;;;;;;5086346;28;20209;-80
2021/04/15 01:25:27;;;;;;;11.85;10.55;;;1.50;85.40;;;;;;5089378;28;20221;-80
2021/04/15 01:28:03;;;;;;;14.25;10.95;;;1.50;86.50;;;;;;5088414;28;20195;-80
2021/04/15 01:30:37;;;;;;;12.23;10.02;;;1.40;86.30;;;;;;5088248;28;20718;-80
2021/04/15 01:33:12;;;;;;;16.17;10.45;;;1.30;87.40;;;;;;5083969;28;20658;-80
2021/04/15 01:35:50;;;;;;;12.70;10.77;;;1.40;86.90;;;;;;5089855;28;20194;-79
2021/04/15 01:38:23;;;;;;;14.70;11.70;;;1.40;85.50;;;;;;5083598;28;20226;-80
2021/04/15 01:40:58;;;;;;;12.63;10.25;;;1.40;85.10;;;;;;5085701;28;20558;-80
2021/04/15 01:43:32;;;;;;;14.75;10.23;;;1.30;85.10;;;;;;5087100;28;20230;-80
2021/04/15 01:46:02;;;;;;;12.25;9.68;;;1.50;85.10;;;;;;5088058;28;20233;-79
2021/04/15 01:48:33;;;;;;;12.23;10.02;;;1.50;85.30;;;;;;5088574;28;20194;-80
2021/04/15 01:51:04;;;;;;;13.70;11.00;;;1.10;86.30;;;;;;5083791;28;20223;-80
2021/04/15 01:53:40;;;;;;;15.63;10.90;;;1.00;87.80;;;;;;5094133;28;20659;-80
2021/04/15 01:56:10;;;;;;;12.77;10.32;;;0.80;88.70;;;;;;5082451;28;20209;-80
2021/04/15 01:58:43;;;;;;;13.98;11.25;;;0.70;90.20;;;;;;5086479;28;20251;-80
2021/04/15 02:01:17;;;;;;;15.77;12.05;;;0.70;90.90;;;;;;5064754;28;20260;-80
2021/04/15 02:03:46;;;;;;;17.88;12.13;;;0.80;91.00;;;;;;5089643;28;20240;-80
2021/04/15 02:06:21;;;;;;;14.77;12.18;;;1.00;91.00;;;;;;5081976;28;20199;-80
2021/04/15 02:08:52;;;;;;;15.35;11.15;;;1.10;90.30;;;;;;5094510;28;20220;-80
2021/04/15 02:11:26;;;;;;;14.65;10.50;;;1.20;88.60;;;;;;5086870;28;20676;-80
2021/04/15 02:13:57;;;;;;;14.57;11.63;;;1.20;86.30;;;;;;5091314;28;20558;-80
2021/04/15 02:16:29;;;;;;;17.80;12.90;;;1.20;86.20;;;;;;5084361;28;20728;-80
2021/04/15 02:19:01;;;;;;;12.30;10.88;;;1.10;87.00;;;;;;5086309;28;20194;-80
2021/04/15 02:21:34;;;;;;;18.42;12.25;;;1.10;88.20;;;;;;5088755;28;20203;-80
2021/04/15 02:24:07;;;;;;;13.50;10.95;;;1.00;88.20;;;;;;5083639;28;20199;-80
2021/04/15 02:26:38;;;;;;;14.43;11.25;;;1.00;87.90;;;;;;5090302;28;20213;-80
2021/04/15 02:29:09;;;;;;;16.50;11.80;;;1.10;87.40;;;;;;5082017;28;20193;-80
2021/04/15 02:31:43;;;;;;;18.77;12.52;;;1.20;86.40;;;;;;5088569;28;20229;-80
2021/04/15 02:34:17;;;;;;;15.82;12.32;;;1.00;85.50;;;;;;5080379;28;20238;-80
2021/04/15 02:36:46;;;;;;;15.50;12.70;;;1.00;85.40;;;;;;5084965;28;20211;-80
2021/04/15 02:39:18;;;;;;;13.25;11.07;;;0.90;86.30;;;;;;5086586;28;20203;-80
2021/04/15 02:41:47;;;;;;;17.00;11.98;;;0.90;86.20;;;;;;5086492;28;20676;-79
2021/04/15 02:44:22;;;;;;;14.85;10.63;;;0.60;86.80;;;;;;5088918;28;20210;-80
2021/04/15 02:46:53;;;;;;;18.95;11.88;;;0.40;89.00;;;;;;5085383;28;20289;-79
2021/04/15 02:49:21;;;;;;;14.23;11.80;;;0.30;90.60;;;;;;5086556;28;20195;-80
2021/04/15 02:51:53;;;;;;;13.63;11.77;;;0.30;91.30;;;;;;5091876;28;20612;-79
2021/04/15 02:54:24;;;;;;;17.35;11.65;;;0.20;91.30;;;;;;5078967;28;20566;-79
2021/04/15 02:56:57;;;;;;;12.73;10.40;;;0.40;91.70;;;;;;5086162;28;20237;-79
2021/04/15 02:59:30;;;;;;;14.93;10.98;;;0.40;91.50;;;;;;5088804;28;20534;-80
2021/04/15 03:02:01;;;;;;;13.23;11.65;;;0.40;91.50;;;;;;5081210;28;20269;-79
2021/04/15 03:04:28;;;;;;;16.77;11.48;;;0.40;91.50;;;;;;5088602;28;20199;-79
2021/04/15 03:06:59;;;;;;;15.45;12.90;;;0.50;91.60;;;;;;5082232;28;20265;-79
2021/04/15 03:09:27;;;;;;;16.00;12.00;;;0.50;91.40;;;;;;5088390;28;20615;-80
2021/04/15 03:11:59;;;;;;;20.75;12.23;;;0.40;91.70;;;;;;5083228;28;20584;-79
2021/04/15 03:14:30;;;;;;;15.35;12.23;;;0.30;91.40;;;;;;5087579;28;20210;-79
2021/04/15 03:17:02;;;;;;;16.33;11.60;;;0.20;91.80;;;;;;5090188;28;20234;-79
2021/04/15 03:19:33;;;;;;;18.92;13.13;;;0.00;92.20;;;;;;5088258;28;20206;-80
2021/04/15 03:22:03;;;;;;;16.70;12.38;;;-0.10;92.90;;;;;;5087648;28;20202;-79
2021/04/15 03:24:34;;;;;;;16.30;11.73;;;-0.10;93.30;;;;;;5091567;28;20633;-79
2021/04/15 03:27:07;;;;;;;13.88;10.45;;;-0.20;93.60;;;;;;5088729;28;20199;-79
2021/04/15 03:29:38;;;;;;;13.77;11.50;;;-0.10;94.00;;;;;;5086391;28;20313;-79
2021/04/15 03:32:14;;;;;;;14.63;10.48;;;0.00;94.10;;;;;;5092543;28;20202;-79
2021/04/15 03:34:47;;;;;;;18.27;13.45;;;0.20;93.90;;;;;;5083972;28;20289;-80
2021/04/15 03:37:20;;;;;;;15.68;12.20;;;0.20;93.20;;;;;;5091312;28;20606;-80
2021/04/15 03:39:51;;;;;;;14.98;11.50;;;0.10;93.10;;;;;;5087209;28;20213;-79
2021/04/15 03:42:24;;;;;;;16.20;12.95;;;0.10;93.40;;;;;;5093147;28;20214;-79
2021/04/15 03:44:55;;;;;;;13.27;11.70;;;0.20;93.40;;;;;;5088332;28;20207;-79
2021/04/15 03:47:29;;;;;;;15.18;12.05;;;0.30;93.20;;;;;;5097455;28;20659;-79
2021/04/15 03:50:00;;;;;;;18.38;12.27;;;0.40;92.20;;;;;;5088455;28;20198;-80
2021/04/15 03:52:31;;;;;;;17.13;13.38;;;0.40;91.70;;;;;;5092120;28;20296;-79
2021/04/15 03:55:11;;;;;;;14.35;11.85;;;0.50;91.80;;;;;;5097804;28;20304;-79
2021/04/15 03:57:40;;;;;;;16.30;12.32;;;0.30;91.70;;;;;;5090142;28;20563;-79
2021/04/15 04:00:11;;;;;;;30.30;20.88;;;0.10;92.00;;;;;;5091837;28;20691;-79
2021/04/15 04:02:42;;;;;;;18.38;14.63;;;0.20;92.40;;;;;;5087573;28;20218;-79
2021/04/15 04:05:13;;;;;;;19.85;14.52;;;0.30;92.50;;;;;;5088597;28;20252;-79
2021/04/15 04:07:43;;;;;;;22.13;15.43;;;0.40;92.50;;;;;;5085408;28;20206;-80
2021/04/15 04:10:15;;;;;;;19.20;13.93;;;0.40;92.10;;;;;;5095431;28;20661;-79
2021/04/15 04:12:45;;;;;;;13.75;12.18;;;0.40;92.00;;;;;;5080450;28;20203;-80
2021/04/15 04:15:16;;;;;;;14.52;12.02;;;0.10;92.00;;;;;;5092261;28;20198;-79
2021/04/15 04:17:50;;;;;;;16.08;13.23;;;0.10;92.30;;;;;;5080027;28;20673;-80
2021/04/15 04:20:18;;;;;;;16.92;12.32;;;0.10;92.20;;;;;;5091130;28;20230;-80
2021/04/15 04:22:50;;;;;;;17.73;11.70;;;0.00;92.40;;;;;;5089212;28;20199;-80
2021/04/15 04:25:24;;;;;;;13.40;11.75;;;0.00;92.60;;;;;;5089999;28;20210;-79
2021/04/15 04:27:57;;;;;;;12.85;10.95;;;-0.10;92.50;;;;;;5084446;28;20290;-80
2021/04/15 04:30:27;;;;;;;15.45;11.23;;;-0.20;92.70;;;;;;5085982;28;20238;-79
2021/04/15 04:32:59;;;;;;;12.45;10.43;;;-0.30;93.30;;;;;;5098011;28;20218;-80
2021/04/15 04:35:29;;;;;;;10.95;8.85;;;-0.40;93.50;;;;;;5091760;28;20238;-80
2021/04/15 04:38:01;;;;;;;16.33;10.30;;;-0.60;94.00;;;;;;5095678;28;20210;-79
2021/04/15 04:40:33;;;;;;;10.38;8.57;;;-0.60;94.80;;;;;;5092200;28;20222;-80
2021/04/15 04:43:04;;;;;;;14.73;10.57;;;-0.60;95.10;;;;;;5096301;28;20209;-80
2021/04/15 04:45:31;;;;;;;11.75;9.85;;;-0.50;95.20;;;;;;5094174;28;20759;-80
2021/04/15 04:48:02;;;;;;;13.73;10.52;;;-0.60;95.30;;;;;;5089428;28;20203;-79
2021/04/15 04:50:36;;;;;;;11.20;10.00;;;-0.70;95.50;;;;;;5090062;28;20708;-80
2021/04/15 04:53:05;;;;;;;11.48;9.10;;;-0.70;95.70;;;;;;5090949;28;20202;-79
2021/04/15 04:55:38;;;;;;;13.30;10.60;;;-0.70;95.80;;;;;;5086457;28;20203;-79
2021/04/15 04:58:10;;;;;;;11.48;9.73;;;-0.60;95.50;;;;;;5090912;28;20203;-80
2021/04/15 05:00:41;;;;;;;14.13;10.32;;;-0.60;95.50;;;;;;5087476;28;20215;-81
2021/04/15 05:03:08;;;;;;;13.80;11.23;;;-0.50;95.50;;;;;;5087643;28;20214;-82
2021/04/15 05:05:35;;;;;;;14.63;10.55;;;-0.30;95.20;;;;;;5093799;28;20198;-82
2021/04/15 05:08:05;;;;;;;13.90;9.50;;;-0.30;94.70;;;;;;5086328;28;20206;-82
2021/04/15 05:10:35;;;;;;;11.85;10.55;;;-0.40;94.70;;;;;;5088437;28;20205;-82
2021/04/15 05:13:09;;;;;;;11.60;10.40;;;-0.40;94.70;;;;;;5089561;28;20231;-82
2021/04/15 05:15:37;;;;;;;12.75;9.55;;;-0.50;94.90;;;;;;5089095;28;20198;-81
2021/04/15 05:18:06;;;;;;;10.73;8.00;;;-0.30;95.00;;;;;;5087876;28;20298;-82
2021/04/15 05:20:33;;;;;;;12.48;8.70;;;-0.10;94.70;;;;;;5090513;28;20310;-83
2021/04/15 05:23:05;;;;;;;12.07;8.82;;;0.00;93.90;;;;;;5089363;28;20687;-82
2021/04/15 05:25:35;;;;;;;10.65;7.95;;;-0.10;93.90;;;;;;5091026;28;20206;-82
2021/04/15 05:28:03;;;;;;;12.05;8.13;;;-0.10;93.70;;;;;;5092346;28;20241;-83
2021/04/15 05:30:37;;;;;;;7.50;6.70;;;-0.10;93.80;;;;;;5097296;28;20232;-82
2021/04/15 05:33:05;;;;;;;14.63;8.38;;;-0.10;94.10;;;;;;5089116;28;20543;-81
2021/04/15 05:35:38;;;;;;;9.32;8.43;;;-0.10;94.00;;;;;;5090093;28;20225;-81
2021/04/15 05:38:07;;;;;;;7.68;6.95;;;-0.10;93.90;;;;;;5093108;28;20203;-80
2021/04/15 05:40:35;;;;;;;9.70;7.40;;;0.00;94.20;;;;;;5089586;28;20219;-81
2021/04/15 05:43:17;;;;;;;8.45;7.22;;;0.10;94.20;;;;;;5094479;28;20201;-81
2021/04/15 05:45:46;;;;;;;7.95;6.72;;;0.00;94.00;;;;;;5094375;28;20206;-81
2021/04/15 05:48:17;;;;;;;8.27;6.65;;;0.00;94.10;;;;;;5093097;28;20211;-82
2021/04/15 05:50:48;;;;;;;12.57;7.18;;;0.10;94.20;;;;;;5090195;28;20202;-81
2021/04/15 05:53:18;;;;;;;7.47;6.60;;;0.00;94.00;;;;;;5090487;28;20317;-81
2021/04/15 05:55:48;;;;;;;7.75;6.95;;;0.10;94.10;;;;;;5093079;28;20296;-82
2021/04/15 05:58:25;;;;;;;9.38;7.28;;;0.30;93.80;;;;;;5088818;28;20721;-82
2021/04/15 06:00:56;;;;;;;8.70;7.90;;;0.40;93.20;;;;;;5087989;28;20219;-82
2021/04/15 06:03:32;;;;;;;10.45;7.95;;;0.40;93.20;;;;;;5090552;28;20191;-82
2021/04/15 06:06:04;;;;;;;8.10;7.40;;;0.40;93.60;;;;;;5093350;28;20666;-82
2021/04/15 06:08:36;;;;;;;7.53;6.78;;;0.80;93.30;;;;;;5089299;28;20199;-82
2021/04/15 06:11:08;;;;;;;10.10;7.68;;;0.90;92.50;;;;;;5089892;28;20187;-82
2021/04/15 06:13:43;;;;;;;7.75;6.95;;;1.00;92.10;;;;;;5090600;28;20694;-83
2021/04/15 06:16:20;;;;;;;8.35;7.53;;;1.10;92.10;;;;;;5089595;28;20209;-84
2021/04/15 06:18:56;;;;;;;7.20;6.50;;;1.20;91.60;;;;;;5086151;28;20207;-84
2021/04/15 06:21:27;;;;;;;9.55;7.55;;;1.10;91.30;;;;;;5089717;28;20883;-84
2021/04/15 06:24:05;;;;;;;7.03;6.35;;;1.10;91.00;;;;;;5090819;28;20615;-84
2021/04/15 06:26:35;;;;;;;9.02;7.95;;;1.30;91.30;;;;;;5088444;28;21669;-84
2021/04/15 06:29:05;;;;;;;7.20;6.50;;;1.50;91.10;;;;;;5089776;28;20202;-84
2021/04/15 06:31:37;;;;;;;11.10;6.22;;;1.50;90.40;;;;;;5089466;28;20655;-83
2021/04/15 06:34:06;;;;;;;8.20;7.45;;;1.20;90.20;;;;;;5089954;28;20257;-83
2021/04/15 06:36:39;;;;;;;7.35;6.65;;;1.30;90.70;;;;;;5090666;28;20199;-83
2021/04/15 06:39:15;;;;;;;6.57;5.95;;;1.30;90.50;;;;;;5090094;28;20225;-83
2021/04/15 06:42:06;;;;;;;9.20;6.70;;;1.30;90.30;;;;;;5091294;28;20262;-83
2021/04/15 06:45:26;;;;;;;8.23;6.30;;;1.60;90.20;;;;;;5089813;28;20210;-83
2021/04/15 06:48:21;;;;;;;8.13;5.82;;;1.70;89.00;;;;;;5096929;28;20284;-83
2021/04/15 06:51:37;;;;;;;8.13;6.15;;;1.70;89.00;;;;;;5104368;28;20247;-83
2021/04/15 06:54:17;;;;;;;7.55;6.65;;;2.00;88.40;;;;;;5042503;28;20200;-83
2021/04/15 06:57:03;;;;;;;9.25;6.60;;;2.10;87.40;;;;;;5047522;28;20262;-84
2021/04/15 06:59:43;;;;;;;16.33;7.20;;;2.60;87.80;;;;;;5085525;28;20675;-83
2021/04/15 07:02:18;;;;;;;8.93;7.55;;;2.90;86.20;;;;;;5099440;28;20218;-83
2021/04/15 07:04:50;;;;;;;16.05;6.38;;;2.80;83.50;;;;;;5089884;28;20255;-82
2021/04/15 07:07:21;;;;;;;7.90;7.20;;;2.50;82.80;;;;;;5087074;28;21036;-83
2021/04/15 07:10:13;;;;;;;8.88;7.97;;;2.50;84.50;;;;;;5091353;28;20567;-83
2021/04/15 07:13:18;;;;;;;9.63;6.53;;;2.70;84.50;;;;;;5094311;28;20198;-83
2021/04/15 07:15:59;;;;;;;10.00;6.90;;;2.70;83.20;;;;;;5093514;28;20289;-84
2021/04/15 07:19:01;;;;;;;10.15;7.43;;;2.80;83.00;;;;;;5092508;28;20213;-83
2021/04/15 07:21:53;;;;;;;6.10;5.50;;;3.40;82.40;;;;;;5073129;28;20697;-83
2021/04/15 07:24:43;;;;;;;5.85;5.25;;;3.60;79.30;;;;;;5092379;28;20277;-84
2021/04/15 07:27:41;;;;;;;9.50;5.38;;;3.40;76.30;;;;;;5093506;28;20209;-84
2021/04/15 07:30:47;;;;;;;6.35;5.70;;;3.50;77.80;;;;;;5089383;28;20198;-83
2021/04/15 07:33:38;;;;;;;6.03;5.45;;;3.60;76.80;;;;;;5069342;28;20212;-86
2021/04/15 07:36:36;;;;;;;9.27;6.45;;;3.50;76.40;;;;;;5092503;28;20289;-86
2021/04/15 07:39:29;;;;;;;8.50;5.50;;;3.70;77.10;;;;;;5090612;28;20257;-86
2021/04/15 07:42:15;;;;;;;6.60;5.70;;;3.70;75.90;;;;;;5094512;28;20219;-85
2021/04/15 07:44:47;;;;;;;8.43;5.38;;;3.90;77.40;;;;;;5093549;28;20672;-84
2021/04/15 07:47:51;;;;;;;6.32;5.80;;;3.90;74.30;;;;;;5092111;28;20212;-84
2021/04/15 07:51:07;;;;;;;7.88;5.10;;;4.10;75.10;;;;;;5085951;28;20213;-84
2021/04/15 07:53:56;;;;;;;6.65;5.03;;;4.50;73.20;;;;;;5028744;28;20201;-83
2021/04/15 07:56:48;;;;;;;7.45;5.75;;;3.80;71.70;;;;;;5089421;28;20223;-83
2021/04/15 07:59:30;;;;;;;8.80;6.55;;;4.20;74.20;;;;;;5090023;28;20222;-83
2021/04/15 08:02:21;;;;;;;6.88;6.03;;;4.60;73.50;;;;;;5091850;28;20637;-83
2021/04/15 08:05:13;;;;;;;8.45;6.60;;;4.80;70.80;;;;;;5093674;28;20216;-82
2021/04/15 08:07:48;;;;;;;14.65;6.03;;;4.50;70.20;;;;;;5093265;28;20206;-83
2021/04/15 08:10:41;;;;;;;7.10;6.22;;;4.40;71.10;;;;;;5088447;28;20202;-82
2021/04/15 08:13:45;;;;;;;9.43;6.10;;;4.60;71.10;;;;;;5075322;28;20214;-83
2021/04/15 08:16:30;;;;;;;7.25;6.55;;;5.20;71.70;;;;;;5083470;28;20198;-82
2021/04/15 08:19:16;;;;;;;7.03;6.25;;;5.40;70.10;;;;;;5091049;28;20191;-82
2021/04/15 08:21:48;;;;;;;6.05;5.45;;;5.20;68.00;;;;;;5083462;28;20272;-82
2021/04/15 08:24:48;;;;;;;6.60;6.00;;;5.50;69.00;;;;;;5091059;28;20206;-82
2021/04/15 08:27:57;;;;;;;7.03;5.32;;;5.60;66.50;;;;;;5081341;28;20210;-83
2021/04/15 08:30:45;;;;;;;7.07;5.85;;;5.70;67.10;;;;;;5092761;28;20203;-83
2021/04/15 08:33:25;;;;;;;8.88;6.38;;;5.70;66.50;;;;;;5088918;28;20282;-82
2021/04/15 08:36:08;;;;;;;5.90;5.35;;;6.20;65.60;;;;;;5090237;28;20557;-83
2021/04/15 08:38:48;;;;;;;6.35;5.75;;;6.60;64.70;;;;;;5089191;28;20197;-82
2021/04/15 08:41:28;;;;;;;8.07;5.70;;;6.80;63.30;;;;;;5087407;28;20246;-82
2021/04/15 08:44:20;;;;;;;5.97;5.35;;;6.50;61.40;;;;;;5087905;28;20213;-84
2021/04/15 08:46:55;;;;;;;5.47;5.00;;;6.40;60.70;;;;;;5075647;28;20217;-83
2021/04/15 08:49:31;;;;;;;5.40;4.90;;;6.30;59.80;;;;;;5091134;28;20228;-84
2021/04/15 08:52:13;;;;;;;5.82;5.32;;;6.30;61.30;;;;;;5100113;28;20244;-83
2021/04/15 08:55:00;;;;;;;6.70;5.93;;;6.50;62.10;;;;;;5091328;28;20209;-84
2021/04/15 08:57:46;;;;;;;6.50;5.80;;;6.90;59.30;;;;;;5088353;28;20194;-84
2021/04/15 09:00:25;;;;;;;7.32;4.97;;;6.70;59.30;;;;;;5091201;28;20202;-84
2021/04/15 09:03:12;;;;;;;6.75;5.13;;;6.60;59.10;;;;;;5088765;28;20250;-83
2021/04/15 09:06:15;;;;;;;6.60;5.65;;;6.50;58.20;;;;;;5088744;28;20606;-83
2021/04/15 09:08:57;;;;;;;7.72;6.32;;;6.70;58.80;;;;;;5086179;28;20681;-84
2021/04/15 09:11:31;;;;;;;7.68;5.85;;;7.20;57.70;;;;;;5092991;28;20694;-84
2021/04/15 09:14:04;;;;;;;11.25;5.75;;;7.30;57.50;;;;;;5092131;28;20209;-84
2021/04/15 09:17:10;;;;;;;6.20;5.00;;;7.10;56.80;;;;;;5092423;28;20222;-85
2021/04/15 09:19:55;;;;;;;6.35;5.28;;;6.20;56.30;;;;;;5086485;28;20213;-84
2021/04/15 09:22:59;;;;;;;6.30;5.45;;;6.20;58.40;;;;;;5088165;28;20311;-84
2021/04/15 09:25:36;;;;;;;7.75;4.90;;;6.50;57.80;;;;;;5086289;28;20232;-83
2021/04/15 09:28:09;;;;;;;7.65;5.40;;;6.80;58.90;;;;;;5089941;28;20213;-84
2021/04/15 09:30:54;;;;;;;6.32;4.65;;;7.00;57.00;;;;;;5090034;28;20206;-83
2021/04/15 09:33:39;;;;;;;6.45;4.75;;;6.80;56.80;;;;;;5094142;28;20214;-83
2021/04/15 09:36:13;;;;;;;5.72;4.60;;;7.20;55.80;;;;;;5086359;28;20206;-83
2021/04/15 09:39:25;;;;;;;4.72;4.30;;;7.40;55.40;;;;;;5090442;28;20198;-83
2021/04/15 09:42:05;;;;;;;8.43;5.28;;;7.60;55.00;;;;;;5030333;28;20580;-83
2021/04/15 09:44:51;;;;;;;5.63;4.43;;;7.70;55.30;;;;;;5074618;28;20305;-84
2021/04/15 09:47:31;;;;;;;5.97;4.05;;;7.70;55.60;;;;;;5090071;28;20207;-83
2021/04/15 09:50:25;;;;;;;3.92;3.63;;;7.40;54.50;;;;;;5090889;28;20290;-84
2021/04/15 09:53:10;;;;;;;8.90;4.38;;;7.50;54.00;;;;;;5088262;28;20199;-84
2021/04/15 09:55:51;;;;;;;5.03;4.53;;;7.80;54.10;;;;;;5084975;28;20229;-83
2021/04/15 09:58:29;;;;;;;6.47;4.60;;;7.90;53.50;;;;;;5082311;28;20194;-83
2021/04/15 10:00:58;;;;;;;4.32;3.92;;;8.10;52.60;;;;;;5088096;28;20201;-82
2021/04/15 10:03:38;;;;;;;5.43;4.38;;;8.20;52.20;;;;;;5087782;28;20210;-83
2021/04/15 10:06:16;;;;;;;4.70;4.20;;;8.10;52.00;;;;;;5093492;28;20354;-84
2021/04/15 10:09:15;;;;;;;3.88;2.85;;;7.90;52.50;;;;;;5081586;28;20198;-83
2021/04/15 10:12:19;;;;;;;3.95;3.10;;;7.70;52.10;;;;;;5089615;28;20637;-83
2021/04/15 10:15:02;;;;;;;3.97;2.95;;;8.20;52.70;;;;;;5044468;28;20267;-83
2021/04/15 10:17:41;;;;;;;4.50;3.40;;;7.80;49.70;;;;;;5093616;28;20205;-83
2021/04/15 10:20:32;;;;;;;3.45;3.13;;;7.60;50.20;;;;;;5089454;28;20209;-83
2021/04/15 10:23:20;;;;;;;5.10;3.33;;;8.00;50.60;;;;;;5090322;28;20291;-84
2021/04/15 10:25:51;;;;;;;9.02;4.05;;;8.50;51.00;;;;;;5091182;28;20202;-84
2021/04/15 10:28:38;;;;;;;3.20;2.88;;;8.80;51.10;;;;;;5101617;28;20659;-84
2021/04/15 10:31:39;;;;;;;4.25;3.28;;;8.40;48.20;;;;;;5088607;28;20194;-84
2021/04/15 10:34:38;;;;;;;4.20;3.80;;;8.50;49.80;;;;;;5089982;28;20281;-84
2021/04/15 10:37:25;;;;;;;4.13;3.83;;;9.00;49.00;;;;;;5087930;28;20217;-84
2021/04/15 10:40:27;;;;;;;4.10;3.60;;;9.40;48.20;;;;;;5091997;28;20270;-84
2021/04/15 10:43:33;;;;;;;4.13;3.70;;;9.50;47.40;;;;;;5089316;28;20221;-84
2021/04/15 10:46:23;;;;;;;4.68;3.90;;;9.40;48.60;;;;;;5066083;28;20573;-84
2021/04/15 10:48:56;;;;;;;5.53;3.83;;;9.20;50.70;;;;;;5087983;28;20210;-84
2021/04/15 10:51:34;;;;;;;4.00;3.70;;;9.10;50.30;;;;;;5095461;28;20212;-85
2021/04/15 10:54:05;;;;;;;5.13;3.72;;;9.20;50.80;;;;;;5095837;28;20244;-83
2021/04/15 10:56:44;;;;;;;4.25;3.85;;;9.30;51.50;;;;;;5092846;28;20206;-84
2021/04/15 10:59:16;;;;;;;4.35;3.95;;;8.90;50.80;;;;;;5086837;28;20203;-84
2021/04/15 11:01:45;;;;;;;4.88;3.97;;;9.20;51.80;;;;;;5090966;28;20687;-84
2021/04/15 11:04:25;;;;;;;6.97;3.75;;;9.10;51.30;;;;;;5090904;28;20214;-84
2021/04/15 11:06:53;;;;;;;5.20;4.60;;;9.50;50.90;;;;;;5087957;28;20244;-84
2021/04/15 11:09:31;;;;;;;5.28;4.72;;;9.70;50.10;;;;;;5091036;28;20632;-85
2021/04/15 11:12:02;;;;;;;4.63;4.13;;;10.10;49.10;;;;;;5098281;28;20614;-84
2021/04/15 11:14:34;;;;;;;5.03;4.53;;;10.70;48.80;;;;;;5092317;28;20207;-84
2021/04/15 11:17:06;;;;;;;4.13;3.83;;;11.40;48.20;;;;;;5093868;28;20627;-84
2021/04/15 11:19:33;;;;;;;4.28;3.55;;;11.30;45.10;;;;;;5093039;28;20620;-84
2021/04/15 11:22:17;;;;;;;5.60;4.20;;;11.00;44.20;;;;;;5097390;28;20207;-84
2021/04/15 11:24:43;;;;;;;5.33;4.00;;;10.90;44.30;;;;;;5092561;28;20615;-84
2021/04/15 11:27:11;;;;;;;5.13;4.63;;;11.50;45.20;;;;;;5095347;28;20628;-84
2021/04/15 11:29:42;;;;;;;4.33;3.90;;;11.60;45.50;;;;;;5093844;28;21249;-84
2021/04/15 11:32:28;;;;;;;5.30;4.20;;;11.60;44.40;;;;;;5091899;28;20734;-84
2021/04/15 11:35:10;;;;;;;5.07;3.90;;;11.60;44.40;;;;;;5079510;28;20646;-84
2021/04/15 11:37:38;;;;;;;4.07;3.10;;;12.40;44.60;;;;;;5089614;28;20619;-84
2021/04/15 11:40:24;;;;;;;3.90;3.57;;;12.60;42.70;;;;;;5092614;28;20620;-84
2021/04/15 11:42:52;;;;;;;3.67;3.37;;;12.70;41.90;;;;;;5091524;28;20693;-83
2021/04/15 11:45:32;;;;;;;3.77;3.40;;;13.70;42.20;;;;;;5095621;28;20618;-84
2021/04/15 11:48:17;;;;;;;7.37;3.80;;;14.20;41.90;;;;;;5091854;28;21015;-84
2021/04/15 11:50:45;;;;;;;4.37;3.97;;;14.90;40.70;;;;;;5084216;28;20620;-84
2021/04/15 11:53:38;;;;;;;3.77;3.47;;;15.40;39.90;;;;;;5091708;28;20624;-84
2021/04/15 11:56:28;;;;;;;3.80;3.37;;;15.50;39.10;;;;;;5088679;28;20628;-84
2021/04/15 11:58:55;;;;;;;4.07;3.77;;;13.70;39.10;;;;;;5089174;28;20625;-84
2021/04/15 12:01:28;;;;;;;5.47;3.30;;;15.20;39.40;;;;;;5092668;28;21283;-84
2021/04/15 12:03:58;;;;;;;4.70;3.53;;;18.40;35.00;;;;;;5093323;28;20615;-85
2021/04/15 12:06:29;;;;;;;5.60;3.50;;;17.90;34.70;;;;;;5086109;28;20633;-85
2021/04/15 12:09:27;;;;;;;4.10;3.70;;;16.30;35.00;;;;;;5090338;28;20620;-85
2021/04/15 12:12:04;;;;;;;4.37;3.97;;;15.70;36.80;;;;;;5090785;28;20627;-85
2021/04/15 12:14:33;;;;;;;3.80;3.40;;;19.40;33.60;;;;;;5085517;28;20625;-85
2021/04/15 12:17:06;;;;;;;3.97;3.23;;;20.60;29.70;;;;;;5096405;28;20628;-85
2021/04/15 12:19:42;;;;;;;3.40;3.10;;;23.30;29.40;;;;;;5084531;28;20642;-84
2021/04/15 12:22:18;;;;;;;3.00;2.80;;;24.60;27.20;;;;;;5091202;28;20654;-85
2021/04/15 12:24:47;;;;;;;2.83;2.63;;;25.90;27.00;;;;;;5084802;28;20792;-85
2021/04/15 12:27:19;;;;;;;3.57;3.30;;;29.00;25.30;;;;;;5090791;28;20628;-85
2021/04/15 12:29:49;;;;;;;2.80;2.60;;;28.90;24.60;;;;;;5089752;28;20627;-84
2021/04/15 12:32:24;;;;;;;3.50;3.10;;;23.00;24.60;;;;;;5084017;28;20665;-84
2021/04/15 12:34:59;;;;;;;2.77;2.57;;;18.20;28.60;;;;;;5091344;28;20623;-84
2021/04/15 12:37:33;;;;;;;2.67;2.47;;;17.70;28.90;;;;;;5094229;28;20635;-84
2021/04/15 12:40:21;;;;;;;2.97;2.53;;;20.70;27.30;;;;;;5090998;28;20640;-85
2021/04/15 12:42:48;;;;;;;2.90;2.70;;;25.70;26.20;;;;;;5092068;28;21177;-85
2021/04/15 12:45:25;;;;;;;2.80;2.60;;;28.60;24.50;;;;;;5090668;28;20629;-85
2021/04/15 12:47:53;;;;;;;3.30;3.00;;;26.70;23.10;;;;;;5085129;28;20635;-86
2021/04/15 12:50:21;;;;;;;3.37;3.10;;;23.60;25.10;;;;;;5093680;28;21024;-86
2021/04/15 12:52:50;;;;;;;3.20;3.00;;;22.00;26.40;;;;;;5092831;28;20654;-85
2021/04/15 12:55:20;;;;;;;3.97;3.57;;;20.10;26.40;;;;;;5091178;28;20621;-85
2021/04/15 12:57:47;;;;;;;3.40;3.10;;;19.30;28.80;;;;;;5087375;28;20633;-85
2021/04/15 13:00:17;;;;;;;3.37;3.07;;;21.60;29.20;;;;;;5090269;28;21238;-85
2021/04/15 13:02:44;;;;;;;4.33;3.07;;;23.50;26.40;;;;;;5090027;28;20632;-85
2021/04/15 13:05:32;;;;;;;3.70;3.20;;;22.50;25.60;;;;;;5091677;28;20618;-85
2021/04/15 13:08:21;;;;;;;5.10;3.40;;;21.70;27.00;;;;;;5086179;28;20982;-85
2021/04/15 13:10:48;;;;;;;3.63;3.33;;;23.70;25.50;;;;;;5089240;28;20623;-85
2021/04/15 13:13:33;;;;;;;3.33;3.03;;;22.70;25.60;;;;;;5096447;28;20661;-85
2021/04/15 13:16:00;;;;;;;3.57;3.27;;;20.20;26.80;;;;;;5091447;28;20628;-85
2021/04/15 13:18:47;;;;;;;3.70;3.40;;;18.80;28.40;;;;;;5086557;28;20675;-85
2021/04/15 13:21:26;;;;;;;3.50;3.30;;;19.80;29.20;;;;;;5083790;28;20641;-85
2021/04/15 13:23:54;;;;;;;4.10;3.80;;;21.00;27.20;;;;;;5088152;28;20610;-85
2021/04/15 13:26:27;;;;;;;3.63;3.33;;;20.30;26.90;;;;;;5085137;28;21195;-85
2021/04/15 13:29:16;;;;;;;3.83;3.50;;;19.40;29.30;;;;;;5090568;28;20734;-85
2021/04/15 13:31:47;;;;;;;3.70;3.40;;;20.40;28.50;;;;;;5090926;28;20662;-84
2021/04/15 13:34:17;;;;;;;3.50;3.20;;;19.60;29.20;;;;;;5090488;28;21180;-85
2021/04/15 13:36:44;;;;;;;3.27;3.07;;;17.10;30.20;;;;;;5085092;28;20636;-84